Amazonia, Missouri
Current Conditions -  °F | °C
As of 12:53 PM on Friday 31 Oct 2014 (Local Time) from KSTJ Reporting Station
Clear Clear  
Wind Chill: 36°   Ceiling: Unl
Heat Index: 43°   Visibility: 10mi
Dew Point: 19°   Wind: 14mph
Humidity: 38%   Direction: 10°N
Pressure: 30.52"   Gusts: 25mph
Location:  39.89°N, 94.89°W
Report Text: KSTJ 311753Z 01012G22KT 10SM CLR 06/M07 A3052 RMK AO2 SLP338 T00611072 10061 21006 58003
Loading
Personal Weather Stations






























Interactive Weather Map
Tropical Storm Tracking
New forecast layout! Learn more

10-Day Weather Forecast

Advertisements
Track Severe Weather on mobile